Accueil
METAR-TAF:

METAR-TAF

Aéroports :

Akulivik, Québec, Canada

latitude: 60-49N, longitude: 078-09W, altitude: 20 m

Observation

Le bulletin a été fait il y a 14 heures et 23 minutes, à 21:00 UTC
Vent 6 kt de nord/nord-ouest, variant entre ouest/nord-ouest et nord
Température -1°C
Humidité 74%
Pression 1021 hPa
Visibilité: 11.3 km
Ciel couvert à une hauteur de 1900 ft

METAR: CYKO 012100Z 33006KT 290V360 7SM OVC019 M01/M05 A3014 RMK SC8 SN CVR TR LOOSE LST STFD OBS/NXT 021200Z SLP208

Heure: 07:23 (11:23 UTC)


TAF: absent

Observations et prévisions météorologiques de plus de 4000 aéroports (messages METAR et TAF).

Les stations disponibles sont représentées par des disques jaunes et rouges sur la carte.

Passer la souris dessus pour voir le nom de la station.

Cliquer dessus pour voir les observations et prévisions météorologiques.

Pour changer de carte: cliquez sur les boutons verts avec une croix noire pour zoomer, sur le bouton vert avec un tiret pour effectuer un zoom arrière, ou sur les flèches vertes pour les cartes adjacentes.


METAR-TAF: